sensor_id;sensor_type;location;lat;lon;timestamp;temperature;humidity
5848;DHT22;8756;49.29324300;8.70599800;2022-11-30T00:00:57;7.80;99.90
5848;DHT22;8756;49.29324300;8.70599800;2022-11-30T00:03:23;7.80;99.90
5848;DHT22;8756;49.29324300;8.70599800;2022-11-30T00:05:50;7.80;99.90
5848;DHT22;8756;49.29324300;8.70599800;2022-11-30T00:08:16;7.70;99.90
5848;DHT22;8756;49.29324300;8.70599800;2022-11-30T00:10:42;7.70;99.90
5848;DHT22;8756;49.29324300;8.70599800;2022-11-30T00:13:08;7.70;99.90
5848;DHT22;8756;49.29324300;8.70599800;2022-11-30T00:15:37;7.70;99.90
5848;DHT22;8756;49.29324300;8.70599800;2022-11-30T00:18:03;7.70;99.90
5848;DHT22;8756;49.29324300;8.70599800;2022-11-30T00:20:29;7.70;99.90
5848;DHT22;8756;49.29324300;8.70599800;2022-11-30T00:22:56;7.70;99.90
5848;DHT22;8756;49.29324300;8.70599800;2022-11-30T00:25:23;7.70;99.90
5848;DHT22;8756;49.29324300;8.70599800;2022-11-30T00:27:49;7.70;99.90
5848;DHT22;8756;49.29324300;8.70599800;2022-11-30T00:30:15;7.60;99.90
5848;DHT22;8756;49.29324300;8.70599800;2022-11-30T00:32:40;7.60;99.90
5848;DHT22;8756;49.29324300;8.70599800;2022-11-30T00:35:06;7.60;99.90
5848;DHT22;8756;49.29324300;8.70599800;2022-11-30T00:37:33;7.60;99.90
5848;DHT22;8756;49.29324300;8.70599800;2022-11-30T00:39:59;7.60;99.90
5848;DHT22;8756;49.29324300;8.70599800;2022-11-30T00:42:25;7.60;99.90
5848;DHT22;8756;49.29324300;8.70599800;2022-11-30T00:44:51;7.60;99.90
5848;DHT22;8756;49.29324300;8.70599800;2022-11-30T00:47:16;7.60;99.90
5848;DHT22;8756;49.29324300;8.70599800;2022-11-30T00:49:42;7.60;99.90
5848;DHT22;8756;49.29324300;8.70599800;2022-11-30T00:52:08;7.60;99.90
5848;DHT22;8756;49.29324300;8.70599800;2022-11-30T00:54:33;7.60;99.90
5848;DHT22;8756;49.29324300;8.70599800;2022-11-30T00:56:59;7.70;99.90
5848;DHT22;8756;49.29324300;8.70599800;2022-11-30T00:59:25;7.70;99.90
5848;DHT22;8756;49.29324300;8.70599800;2022-11-30T01:01:52;7.70;99.90
5848;DHT22;8756;49.29324300;8.70599800;2022-11-30T01:04:19;7.70;99.90
5848;DHT22;8756;49.29324300;8.70599800;2022-11-30T01:06:45;7.70;99.90
5848;DHT22;8756;49.29324300;8.70599800;2022-11-30T01:09:11;7.70;99.90
5848;DHT22;8756;49.29324300;8.70599800;2022-11-30T01:11:37;7.60;99.90
5848;DHT22;8756;49.29324300;8.70599800;2022-11-30T01:14:03;7.70;99.90
5848;DHT22;8756;49.29324300;8.70599800;2022-11-30T01:16:31;7.70;99.90
5848;DHT22;8756;49.29324300;8.70599800;2022-11-30T01:18:57;7.70;99.90
5848;DHT22;8756;49.29324300;8.70599800;2022-11-30T01:21:25;7.70;99.90
5848;DHT22;8756;49.29324300;8.70599800;2022-11-30T01:23:52;7.80;99.90
5848;DHT22;8756;49.29324300;8.70599800;2022-11-30T01:26:18;7.80;99.90
5848;DHT22;8756;49.29324300;8.70599800;2022-11-30T01:28:52;7.70;99.90
5848;DHT22;8756;49.29324300;8.70599800;2022-11-30T01:31:19;7.80;99.90
5848;DHT22;8756;49.29324300;8.70599800;2022-11-30T01:33:53;7.80;99.90
5848;DHT22;8756;49.29324300;8.70599800;2022-11-30T01:36:24;7.80;99.90
5848;DHT22;8756;49.29324300;8.70599800;2022-11-30T01:38:56;7.90;99.90
5848;DHT22;8756;49.29324300;8.70599800;2022-11-30T01:41:30;7.80;99.90
5848;DHT22;8756;49.29324300;8.70599800;2022-11-30T01:46:39;7.90;99.90
5848;DHT22;8756;49.29324300;8.70599800;2022-11-30T01:54:03;7.80;99.90
5848;DHT22;8756;49.29324300;8.70599800;2022-11-30T01:56:31;7.80;99.90
5848;DHT22;8756;49.29324300;8.70599800;2022-11-30T01:58:57;7.80;99.90
5848;DHT22;8756;49.29324300;8.70599800;2022-11-30T02:01:24;7.80;99.90
5848;DHT22;8756;49.29324300;8.70599800;2022-11-30T02:04:05;7.80;99.90
5848;DHT22;8756;49.29324300;8.70599800;2022-11-30T02:06:34;7.80;99.90
5848;DHT22;8756;49.29324300;8.70599800;2022-11-30T02:09:00;7.80;99.90
5848;DHT22;8756;49.29324300;8.70599800;2022-11-30T02:11:27;7.80;99.90
5848;DHT22;8756;49.29324300;8.70599800;2022-11-30T02:17:08;7.70;99.90
5848;DHT22;8756;49.29324300;8.70599800;2022-11-30T02:20:06;7.70;99.90
5848;DHT22;8756;49.29324300;8.70599800;2022-11-30T02:30:59;7.70;99.90
5848;DHT22;8756;49.29324300;8.70599800;2022-11-30T02:33:28;7.70;99.90
5848;DHT22;8756;49.29324300;8.70599800;2022-11-30T02:35:56;7.70;99.90
5848;DHT22;8756;49.29324300;8.70599800;2022-11-30T02:38:25;7.80;99.90
5848;DHT22;8756;49.29324300;8.70599800;2022-11-30T02:40:52;7.80;99.90
5848;DHT22;8756;49.29324300;8.70599800;2022-11-30T02:43:23;7.70;99.90
5848;DHT22;8756;49.29324300;8.70599800;2022-11-30T02:46:15;7.70;99.90
5848;DHT22;8756;49.29324300;8.70599800;2022-11-30T02:49:10;7.60;99.90
5848;DHT22;8756;49.29324300;8.70599800;2022-11-30T02:51:43;7.60;99.90
5848;DHT22;8756;49.29324300;8.70599800;2022-11-30T02:54:10;7.50;99.90
5848;DHT22;8756;49.29324300;8.70599800;2022-11-30T02:56:36;7.50;99.90
5848;DHT22;8756;49.29324300;8.70599800;2022-11-30T02:59:02;7.50;99.90
5848;DHT22;8756;49.29324300;8.70599800;2022-11-30T03:01:28;7.50;99.90
5848;DHT22;8756;49.29324300;8.70599800;2022-11-30T03:03:54;7.50;99.90
5848;DHT22;8756;49.29324300;8.70599800;2022-11-30T03:06:19;7.50;99.90
5848;DHT22;8756;49.29324300;8.70599800;2022-11-30T03:08:45;7.50;99.90
5848;DHT22;8756;49.29324300;8.70599800;2022-11-30T03:11:10;7.50;99.90
5848;DHT22;8756;49.29324300;8.70599800;2022-11-30T03:13:36;7.40;99.90
5848;DHT22;8756;49.29324300;8.70599800;2022-11-30T03:16:10;7.40;99.90
5848;DHT22;8756;49.29324300;8.70599800;2022-11-30T03:18:37;7.40;99.90
5848;DHT22;8756;49.29324300;8.70599800;2022-11-30T03:21:10;7.40;99.90
5848;DHT22;8756;49.29324300;8.70599800;2022-11-30T03:23:37;7.50;99.90
5848;DHT22;8756;49.29324300;8.70599800;2022-11-30T03:26:04;7.50;99.90
5848;DHT22;8756;49.29324300;8.70599800;2022-11-30T03:28:34;7.50;99.90
5848;DHT22;8756;49.29324300;8.70599800;2022-11-30T03:31:01;7.50;99.90
5848;DHT22;8756;49.29324300;8.70599800;2022-11-30T03:33:26;7.50;99.90
5848;DHT22;8756;49.29324300;8.70599800;2022-11-30T03:36:03;7.50;99.90
5848;DHT22;8756;49.29324300;8.70599800;2022-11-30T03:38:30;7.50;99.90
5848;DHT22;8756;49.29324300;8.70599800;2022-11-30T03:41:05;7.50;99.90
5848;DHT22;8756;49.29324300;8.70599800;2022-11-30T03:43:32;7.60;99.90
5848;DHT22;8756;49.29324300;8.70599800;2022-11-30T03:45:59;7.60;99.90
5848;DHT22;8756;49.29324300;8.70599800;2022-11-30T03:48:25;7.60;99.90
5848;DHT22;8756;49.29324300;8.70599800;2022-11-30T03:50:51;7.60;99.90
5848;DHT22;8756;49.29324300;8.70599800;2022-11-30T03:53:18;7.60;99.90
5848;DHT22;8756;49.29324300;8.70599800;2022-11-30T03:55:45;7.60;99.90
5848;DHT22;8756;49.29324300;8.70599800;2022-11-30T03:58:11;7.60;99.90
5848;DHT22;8756;49.29324300;8.70599800;2022-11-30T04:00:37;7.60;99.90
5848;DHT22;8756;49.29324300;8.70599800;2022-11-30T04:03:03;7.70;99.90
5848;DHT22;8756;49.29324300;8.70599800;2022-11-30T04:05:29;7.70;99.90
5848;DHT22;8756;49.29324300;8.70599800;2022-11-30T04:07:55;7.70;99.90
5848;DHT22;8756;49.29324300;8.70599800;2022-11-30T04:10:21;7.70;99.90
5848;DHT22;8756;49.29324300;8.70599800;2022-11-30T04:12:48;7.70;99.90
5848;DHT22;8756;49.29324300;8.70599800;2022-11-30T04:15:14;7.60;99.90
5848;DHT22;8756;49.29324300;8.70599800;2022-11-30T04:17:39;7.60;99.90
5848;DHT22;8756;49.29324300;8.70599800;2022-11-30T04:20:06;7.60;99.90
5848;DHT22;8756;49.29324300;8.70599800;2022-11-30T04:22:32;7.60;99.90
5848;DHT22;8756;49.29324300;8.70599800;2022-11-30T04:24:58;7.50;99.90
5848;DHT22;8756;49.29324300;8.70599800;2022-11-30T04:27:24;7.50;99.90
5848;DHT22;8756;49.29324300;8.70599800;2022-11-30T04:29:50;7.50;99.90
5848;DHT22;8756;49.29324300;8.70599800;2022-11-30T04:32:15;7.50;99.90
5848;DHT22;8756;49.29324300;8.70599800;2022-11-30T04:34:41;7.50;99.90
5848;DHT22;8756;49.29324300;8.70599800;2022-11-30T04:37:07;7.60;99.90
5848;DHT22;8756;49.29324300;8.70599800;2022-11-30T04:39:33;7.60;99.90
5848;DHT22;8756;49.29324300;8.70599800;2022-11-30T04:41:59;7.70;99.90
5848;DHT22;8756;49.29324300;8.70599800;2022-11-30T04:44:25;7.70;99.90
5848;DHT22;8756;49.29324300;8.70599800;2022-11-30T04:46:50;7.70;99.90
5848;DHT22;8756;49.29324300;8.70599800;2022-11-30T04:49:16;7.70;99.90
5848;DHT22;8756;49.29324300;8.70599800;2022-11-30T04:51:42;7.80;99.90
5848;DHT22;8756;49.29324300;8.70599800;2022-11-30T04:54:08;7.70;99.90
5848;DHT22;8756;49.29324300;8.70599800;2022-11-30T04:56:33;7.70;99.90
5848;DHT22;8756;49.29324300;8.70599800;2022-11-30T04:59:00;7.60;99.90
5848;DHT22;8756;49.29324300;8.70599800;2022-11-30T05:01:26;7.60;99.90
5848;DHT22;8756;49.29324300;8.70599800;2022-11-30T05:03:52;7.60;99.90
5848;DHT22;8756;49.29324300;8.70599800;2022-11-30T05:06:18;7.60;99.90
5848;DHT22;8756;49.29324300;8.70599800;2022-11-30T05:08:43;7.70;99.90
5848;DHT22;8756;49.29324300;8.70599800;2022-11-30T05:11:09;7.60;99.90
5848;DHT22;8756;49.29324300;8.70599800;2022-11-30T05:13:35;7.70;99.90
5848;DHT22;8756;49.29324300;8.70599800;2022-11-30T05:16:01;7.60;99.90
5848;DHT22;8756;49.29324300;8.70599800;2022-11-30T05:18:26;7.60;99.90
5848;DHT22;8756;49.29324300;8.70599800;2022-11-30T05:20:53;7.60;99.90
5848;DHT22;8756;49.29324300;8.70599800;2022-11-30T05:23:20;7.60;99.90
5848;DHT22;8756;49.29324300;8.70599800;2022-11-30T05:25:46;7.60;99.90
5848;DHT22;8756;49.29324300;8.70599800;2022-11-30T05:28:12;7.60;99.90
5848;DHT22;8756;49.29324300;8.70599800;2022-11-30T05:30:41;7.60;99.90
5848;DHT22;8756;49.29324300;8.70599800;2022-11-30T05:33:07;7.60;99.90
5848;DHT22;8756;49.29324300;8.70599800;2022-11-30T05:35:33;7.60;99.90
5848;DHT22;8756;49.29324300;8.70599800;2022-11-30T05:38:00;7.60;99.90
5848;DHT22;8756;49.29324300;8.70599800;2022-11-30T05:40:25;7.50;99.90
5848;DHT22;8756;49.29324300;8.70599800;2022-11-30T05:42:56;7.50;99.90
5848;DHT22;8756;49.29324300;8.70599800;2022-11-30T05:45:23;7.50;99.90
5848;DHT22;8756;49.29324300;8.70599800;2022-11-30T05:47:49;7.50;99.90
5848;DHT22;8756;49.29324300;8.70599800;2022-11-30T05:50:15;7.50;99.90
5848;DHT22;8756;49.29324300;8.70599800;2022-11-30T05:52:41;7.40;99.90
5848;DHT22;8756;49.29324300;8.70599800;2022-11-30T05:55:07;7.40;99.90
5848;DHT22;8756;49.29324300;8.70599800;2022-11-30T05:57:37;7.30;99.90
5848;DHT22;8756;49.29324300;8.70599800;2022-11-30T06:00:05;7.30;99.90
5848;DHT22;8756;49.29324300;8.70599800;2022-11-30T06:02:32;7.30;99.90
5848;DHT22;8756;49.29324300;8.70599800;2022-11-30T06:04:58;7.30;99.90
5848;DHT22;8756;49.29324300;8.70599800;2022-11-30T06:07:24;7.20;99.90
5848;DHT22;8756;49.29324300;8.70599800;2022-11-30T06:09:49;7.20;99.90
5848;DHT22;8756;49.29324300;8.70599800;2022-11-30T06:12:15;7.20;99.90
5848;DHT22;8756;49.29324300;8.70599800;2022-11-30T06:14:41;7.20;99.90
5848;DHT22;8756;49.29324300;8.70599800;2022-11-30T06:17:06;7.20;99.90
5848;DHT22;8756;49.29324300;8.70599800;2022-11-30T06:19:32;7.20;99.90
5848;DHT22;8756;49.29324300;8.70599800;2022-11-30T06:21:58;7.10;99.90
5848;DHT22;8756;49.29324300;8.70599800;2022-11-30T06:24:24;7.10;99.90
5848;DHT22;8756;49.29324300;8.70599800;2022-11-30T06:26:50;7.00;99.90
5848;DHT22;8756;49.29324300;8.70599800;2022-11-30T06:29:15;7.10;99.90
5848;DHT22;8756;49.29324300;8.70599800;2022-11-30T06:31:41;7.00;99.90
5848;DHT22;8756;49.29324300;8.70599800;2022-11-30T06:34:07;7.00;99.90
5848;DHT22;8756;49.29324300;8.70599800;2022-11-30T06:36:32;7.00;99.90
5848;DHT22;8756;49.29324300;8.70599800;2022-11-30T06:38:58;7.00;99.90
5848;DHT22;8756;49.29324300;8.70599800;2022-11-30T06:41:24;7.00;99.90
5848;DHT22;8756;49.29324300;8.70599800;2022-11-30T06:43:50;7.00;99.90
5848;DHT22;8756;49.29324300;8.70599800;2022-11-30T06:46:16;7.00;99.90
5848;DHT22;8756;49.29324300;8.70599800;2022-11-30T06:48:42;7.00;99.90
5848;DHT22;8756;49.29324300;8.70599800;2022-11-30T06:51:09;7.00;99.90
5848;DHT22;8756;49.29324300;8.70599800;2022-11-30T06:53:35;7.00;99.90
5848;DHT22;8756;49.29324300;8.70599800;2022-11-30T06:56:06;7.00;99.90
5848;DHT22;8756;49.29324300;8.70599800;2022-11-30T06:58:32;7.00;99.90
5848;DHT22;8756;49.29324300;8.70599800;2022-11-30T07:00:58;7.00;99.90
5848;DHT22;8756;49.29324300;8.70599800;2022-11-30T07:03:24;7.00;99.90
5848;DHT22;8756;49.29324300;8.70599800;2022-11-30T07:05:50;7.10;99.90
5848;DHT22;8756;49.29324300;8.70599800;2022-11-30T07:08:16;7.10;99.90
5848;DHT22;8756;49.29324300;8.70599800;2022-11-30T07:10:44;7.10;99.90
5848;DHT22;8756;49.29324300;8.70599800;2022-11-30T07:13:12;7.20;99.90
5848;DHT22;8756;49.29324300;8.70599800;2022-11-30T07:15:39;7.20;99.90
5848;DHT22;8756;49.29324300;8.70599800;2022-11-30T07:18:06;7.20;99.90
5848;DHT22;8756;49.29324300;8.70599800;2022-11-30T07:20:32;7.20;99.90
5848;DHT22;8756;49.29324300;8.70599800;2022-11-30T07:22:58;7.30;99.90
5848;DHT22;8756;49.29324300;8.70599800;2022-11-30T07:25:49;7.30;99.90
5848;DHT22;8756;49.29324300;8.70599800;2022-11-30T07:28:40;7.30;99.90
5848;DHT22;8756;49.29324300;8.70599800;2022-11-30T07:31:30;7.30;99.90
5848;DHT22;8756;49.29324300;8.70599800;2022-11-30T07:34:06;7.30;99.90
5848;DHT22;8756;49.29324300;8.70599800;2022-11-30T07:36:34;7.30;99.90
5848;DHT22;8756;49.29324300;8.70599800;2022-11-30T07:39:01;7.30;99.90
5848;DHT22;8756;49.29324300;8.70599800;2022-11-30T07:41:28;7.30;99.90
5848;DHT22;8756;49.29324300;8.70599800;2022-11-30T07:43:53;7.40;99.90
5848;DHT22;8756;49.29324300;8.70599800;2022-11-30T07:46:19;7.40;99.90
5848;DHT22;8756;49.29324300;8.70599800;2022-11-30T07:48:45;7.30;99.90
5848;DHT22;8756;49.29324300;8.70599800;2022-11-30T07:51:13;7.40;99.90
5848;DHT22;8756;49.29324300;8.70599800;2022-11-30T07:53:40;7.40;99.90
5848;DHT22;8756;49.29324300;8.70599800;2022-11-30T07:56:08;7.40;99.90
5848;DHT22;8756;49.29324300;8.70599800;2022-11-30T07:58:38;7.40;99.90
5848;DHT22;8756;49.29324300;8.70599800;2022-11-30T08:01:08;7.40;99.90
5848;DHT22;8756;49.29324300;8.70599800;2022-11-30T08:03:35;7.40;99.90
5848;DHT22;8756;49.29324300;8.70599800;2022-11-30T08:06:07;7.40;99.90
5848;DHT22;8756;49.29324300;8.70599800;2022-11-30T08:08:35;7.50;99.90
5848;DHT22;8756;49.29324300;8.70599800;2022-11-30T08:11:04;7.40;99.90
5848;DHT22;8756;49.29324300;8.70599800;2022-11-30T08:13:31;7.50;99.90
5848;DHT22;8756;49.29324300;8.70599800;2022-11-30T08:16:01;7.50;99.90
5848;DHT22;8756;49.29324300;8.70599800;2022-11-30T08:18:27;7.40;99.90
5848;DHT22;8756;49.29324300;8.70599800;2022-11-30T08:21:01;7.40;99.90
5848;DHT22;8756;49.29324300;8.70599800;2022-11-30T08:23:33;7.40;99.90
5848;DHT22;8756;49.29324300;8.70599800;2022-11-30T08:26:03;7.40;99.90
5848;DHT22;8756;49.29324300;8.70599800;2022-11-30T08:28:30;7.40;99.90
5848;DHT22;8756;49.29324300;8.70599800;2022-11-30T08:31:00;7.50;99.90
5848;DHT22;8756;49.29324300;8.70599800;2022-11-30T08:33:29;7.40;99.90
5848;DHT22;8756;49.29324300;8.70599800;2022-11-30T08:38:41;7.50;99.90
5848;DHT22;8756;49.29324300;8.70599800;2022-11-30T08:41:09;7.40;99.90
5848;DHT22;8756;49.29324300;8.70599800;2022-11-30T08:43:36;7.40;99.90
5848;DHT22;8756;49.29324300;8.70599800;2022-11-30T08:46:03;7.40;99.90
5848;DHT22;8756;49.29324300;8.70599800;2022-11-30T08:48:31;7.40;99.90
5848;DHT22;8756;49.29324300;8.70599800;2022-11-30T08:51:01;7.40;99.90
5848;DHT22;8756;49.29324300;8.70599800;2022-11-30T08:53:28;7.40;99.90
5848;DHT22;8756;49.29324300;8.70599800;2022-11-30T08:56:06;7.40;99.90
5848;DHT22;8756;49.29324300;8.70599800;2022-11-30T08:58:36;7.40;99.90
5848;DHT22;8756;49.29324300;8.70599800;2022-11-30T09:03:41;7.40;99.90
5848;DHT22;8756;49.29324300;8.70599800;2022-11-30T09:06:18;7.30;99.90
5848;DHT22;8756;49.29324300;8.70599800;2022-11-30T09:08:47;7.30;99.90
5848;DHT22;8756;49.29324300;8.70599800;2022-11-30T09:11:20;7.40;99.90
5848;DHT22;8756;49.29324300;8.70599800;2022-11-30T09:13:47;7.40;99.90
5848;DHT22;8756;49.29324300;8.70599800;2022-11-30T09:16:15;7.40;99.90
5848;DHT22;8756;49.29324300;8.70599800;2022-11-30T09:18:42;7.30;99.90
5848;DHT22;8756;49.29324300;8.70599800;2022-11-30T09:21:10;7.40;99.90
5848;DHT22;8756;49.29324300;8.70599800;2022-11-30T09:23:38;7.40;99.90
5848;DHT22;8756;49.29324300;8.70599800;2022-11-30T09:26:07;7.40;99.90
5848;DHT22;8756;49.29324300;8.70599800;2022-11-30T09:28:35;7.40;99.90
5848;DHT22;8756;49.29324300;8.70599800;2022-11-30T09:31:03;7.40;99.90
5848;DHT22;8756;49.29324300;8.70599800;2022-11-30T09:33:32;7.40;99.90
5848;DHT22;8756;49.29324300;8.70599800;2022-11-30T09:36:03;7.50;99.90
5848;DHT22;8756;49.29324300;8.70599800;2022-11-30T09:38:30;7.50;99.90
5848;DHT22;8756;49.29324300;8.70599800;2022-11-30T09:40:58;7.50;99.90
5848;DHT22;8756;49.29324300;8.70599800;2022-11-30T09:43:48;7.50;99.90
5848;DHT22;8756;49.29324300;8.70599800;2022-11-30T09:46:24;7.50;99.90
5848;DHT22;8756;49.29324300;8.70599800;2022-11-30T09:51:45;7.50;99.90
5848;DHT22;8756;49.29324300;8.70599800;2022-11-30T09:54:15;7.50;99.90
5848;DHT22;8756;49.29324300;8.70599800;2022-11-30T09:56:45;7.50;99.90
5848;DHT22;8756;49.29324300;8.70599800;2022-11-30T09:59:26;7.50;99.90
5848;DHT22;8756;49.29324300;8.70599800;2022-11-30T10:01:59;7.50;99.90
5848;DHT22;8756;49.29324300;8.70599800;2022-11-30T10:04:31;7.50;99.90
5848;DHT22;8756;49.29324300;8.70599800;2022-11-30T10:07:08;7.60;99.90
5848;DHT22;8756;49.29324300;8.70599800;2022-11-30T10:12:48;7.50;99.90
5848;DHT22;8756;49.29324300;8.70599800;2022-11-30T10:22:03;7.50;99.90
5848;DHT22;8756;49.29324300;8.70599800;2022-11-30T10:27:45;7.60;99.90
5848;DHT22;8756;49.29324300;8.70599800;2022-11-30T10:30:32;7.60;99.90
5848;DHT22;8756;49.29324300;8.70599800;2022-11-30T10:33:04;7.70;99.90
5848;DHT22;8756;49.29324300;8.70599800;2022-11-30T10:35:40;7.80;99.90
5848;DHT22;8756;49.29324300;8.70599800;2022-11-30T10:38:15;7.80;99.90
5848;DHT22;8756;49.29324300;8.70599800;2022-11-30T10:43:50;7.80;99.90
5848;DHT22;8756;49.29324300;8.70599800;2022-11-30T10:46:57;7.80;99.90
5848;DHT22;8756;49.29324300;8.70599800;2022-11-30T10:49:27;7.70;99.90
5848;DHT22;8756;49.29324300;8.70599800;2022-11-30T10:51:58;7.70;99.90
5848;DHT22;8756;49.29324300;8.70599800;2022-11-30T10:54:29;7.70;99.90
5848;DHT22;8756;49.29324300;8.70599800;2022-11-30T10:56:59;7.70;99.90
5848;DHT22;8756;49.29324300;8.70599800;2022-11-30T10:59:46;7.80;99.90
5848;DHT22;8756;49.29324300;8.70599800;2022-11-30T11:02:40;7.80;99.90
5848;DHT22;8756;49.29324300;8.70599800;2022-11-30T11:05:19;7.80;99.90
5848;DHT22;8756;49.29324300;8.70599800;2022-11-30T11:13:04;7.80;99.90
5848;DHT22;8756;49.29324300;8.70599800;2022-11-30T11:15:33;7.80;99.90
5848;DHT22;8756;49.29324300;8.70599800;2022-11-30T11:20:41;7.80;99.90
5848;DHT22;8756;49.29324300;8.70599800;2022-11-30T11:23:33;7.80;99.90
5848;DHT22;8756;49.29324300;8.70599800;2022-11-30T11:26:01;7.80;99.90
5848;DHT22;8756;49.29324300;8.70599800;2022-11-30T11:28:28;7.80;99.90
5848;DHT22;8756;49.29324300;8.70599800;2022-11-30T11:30:55;7.80;99.90
5848;DHT22;8756;49.29324300;8.70599800;2022-11-30T11:33:28;7.90;99.90
5848;DHT22;8756;49.29324300;8.70599800;2022-11-30T11:36:12;7.90;99.90
5848;DHT22;8756;49.29324300;8.70599800;2022-11-30T11:38:43;7.90;99.90
5848;DHT22;8756;49.29324300;8.70599800;2022-11-30T11:41:23;7.90;99.90
5848;DHT22;8756;49.29324300;8.70599800;2022-11-30T11:46:29;8.00;99.90
5848;DHT22;8756;49.29324300;8.70599800;2022-11-30T11:49:18;8.00;99.90
5848;DHT22;8756;49.29324300;8.70599800;2022-11-30T11:51:46;8.00;99.90
5848;DHT22;8756;49.29324300;8.70599800;2022-11-30T11:54:22;8.00;99.90
5848;DHT22;8756;49.29324300;8.70599800;2022-11-30T11:56:50;8.00;99.90
5848;DHT22;8756;49.29324300;8.70599800;2022-11-30T11:59:26;8.00;99.90
5848;DHT22;8756;49.29324300;8.70599800;2022-11-30T12:05:13;8.10;99.90
5848;DHT22;8756;49.29324300;8.70599800;2022-11-30T12:13:16;8.20;99.90
5848;DHT22;8756;49.29324300;8.70599800;2022-11-30T12:24:49;8.20;99.90
5848;DHT22;8756;49.29324300;8.70599800;2022-11-30T12:27:51;8.20;99.90
5848;DHT22;8756;49.29324300;8.70599800;2022-11-30T12:33:20;8.20;99.90
5848;DHT22;8756;49.29324300;8.70599800;2022-11-30T12:36:01;8.20;99.90
5848;DHT22;8756;49.29324300;8.70599800;2022-11-30T12:49:30;8.20;99.90
5848;DHT22;8756;49.29324300;8.70599800;2022-11-30T12:55:23;8.20;99.90
5848;DHT22;8756;49.29324300;8.70599800;2022-11-30T13:04:03;8.10;99.90
5848;DHT22;8756;49.29324300;8.70599800;2022-11-30T13:06:48;8.10;99.90
5848;DHT22;8756;49.29324300;8.70599800;2022-11-30T13:09:31;8.10;99.90
5848;DHT22;8756;49.29324300;8.70599800;2022-11-30T13:12:06;8.10;99.90
5848;DHT22;8756;49.29324300;8.70599800;2022-11-30T13:14:37;8.10;99.90
5848;DHT22;8756;49.29324300;8.70599800;2022-11-30T13:17:06;8.10;99.90
5848;DHT22;8756;49.29324300;8.70599800;2022-11-30T13:19:46;8.10;99.90
5848;DHT22;8756;49.29324300;8.70599800;2022-11-30T13:28:36;8.10;99.90
5848;DHT22;8756;49.29324300;8.70599800;2022-11-30T13:31:24;8.10;99.90
5848;DHT22;8756;49.29324300;8.70599800;2022-11-30T13:36:41;8.10;99.90
5848;DHT22;8756;49.29324300;8.70599800;2022-11-30T13:41:46;8.10;99.90
5848;DHT22;8756;49.29324300;8.70599800;2022-11-30T13:44:32;8.10;99.90
5848;DHT22;8756;49.29324300;8.70599800;2022-11-30T13:47:04;8.10;99.90
5848;DHT22;8756;49.29324300;8.70599800;2022-11-30T13:49:38;8.10;99.90
5848;DHT22;8756;49.29324300;8.70599800;2022-11-30T13:52:04;8.10;99.90
5848;DHT22;8756;49.29324300;8.70599800;2022-11-30T14:07:44;8.10;99.90
5848;DHT22;8756;49.29324300;8.70599800;2022-11-30T14:10:32;8.10;99.90
5848;DHT22;8756;49.29324300;8.70599800;2022-11-30T14:13:02;8.10;99.90
5848;DHT22;8756;49.29324300;8.70599800;2022-11-30T14:15:59;8.10;99.90
5848;DHT22;8756;49.29324300;8.70599800;2022-11-30T14:18:41;8.10;99.90
5848;DHT22;8756;49.29324300;8.70599800;2022-11-30T14:21:31;8.10;99.90
5848;DHT22;8756;49.29324300;8.70599800;2022-11-30T14:24:02;8.00;99.90
5848;DHT22;8756;49.29324300;8.70599800;2022-11-30T14:26:37;8.00;99.90
5848;DHT22;8756;49.29324300;8.70599800;2022-11-30T14:31:40;7.90;99.90
5848;DHT22;8756;49.29324300;8.70599800;2022-11-30T14:36:55;7.90;99.90
5848;DHT22;8756;49.29324300;8.70599800;2022-11-30T14:39:37;7.90;99.90
5848;DHT22;8756;49.29324300;8.70599800;2022-11-30T14:44:50;7.90;99.90
5848;DHT22;8756;49.29324300;8.70599800;2022-11-30T14:49:56;7.90;99.90
5848;DHT22;8756;49.29324300;8.70599800;2022-11-30T14:55:47;7.90;99.90
5848;DHT22;8756;49.29324300;8.70599800;2022-11-30T14:58:29;7.90;99.90
5848;DHT22;8756;49.29324300;8.70599800;2022-11-30T15:01:16;7.80;99.90
5848;DHT22;8756;49.29324300;8.70599800;2022-11-30T15:03:44;7.80;99.90
5848;DHT22;8756;49.29324300;8.70599800;2022-11-30T15:06:19;7.90;99.90
5848;DHT22;8756;49.29324300;8.70599800;2022-11-30T15:08:52;7.90;99.90
5848;DHT22;8756;49.29324300;8.70599800;2022-11-30T15:11:19;7.80;99.90
5848;DHT22;8756;49.29324300;8.70599800;2022-11-30T15:13:51;7.80;99.90
5848;DHT22;8756;49.29324300;8.70599800;2022-11-30T15:18:51;7.80;99.90
5848;DHT22;8756;49.29324300;8.70599800;2022-11-30T15:23:59;7.80;99.90
5848;DHT22;8756;49.29324300;8.70599800;2022-11-30T15:26:32;7.80;99.90
5848;DHT22;8756;49.29324300;8.70599800;2022-11-30T15:29:27;7.80;99.90
5848;DHT22;8756;49.29324300;8.70599800;2022-11-30T15:31:58;7.80;99.90
5848;DHT22;8756;49.29324300;8.70599800;2022-11-30T15:34:37;7.70;99.90
5848;DHT22;8756;49.29324300;8.70599800;2022-11-30T15:37:09;7.70;99.90
5848;DHT22;8756;49.29324300;8.70599800;2022-11-30T15:39:36;7.70;99.90
5848;DHT22;8756;49.29324300;8.70599800;2022-11-30T15:42:03;7.70;99.90
5848;DHT22;8756;49.29324300;8.70599800;2022-11-30T15:47:24;7.70;99.90
5848;DHT22;8756;49.29324300;8.70599800;2022-11-30T15:49:56;7.70;99.90
5848;DHT22;8756;49.29324300;8.70599800;2022-11-30T15:52:29;7.80;99.90
5848;DHT22;8756;49.29324300;8.70599800;2022-11-30T15:54:57;7.70;99.90
5848;DHT22;8756;49.29324300;8.70599800;2022-11-30T15:57:58;7.70;99.90
5848;DHT22;8756;49.29324300;8.70599800;2022-11-30T16:00:25;7.70;99.90
5848;DHT22;8756;49.29324300;8.70599800;2022-11-30T16:03:10;7.70;99.90
5848;DHT22;8756;49.29324300;8.70599800;2022-11-30T16:05:55;7.70;99.90
5848;DHT22;8756;49.29324300;8.70599800;2022-11-30T16:08:23;7.70;99.90
5848;DHT22;8756;49.29324300;8.70599800;2022-11-30T16:10:49;7.70;99.90
5848;DHT22;8756;49.29324300;8.70599800;2022-11-30T16:13:16;7.60;99.90
5848;DHT22;8756;49.29324300;8.70599800;2022-11-30T16:15:45;7.60;99.90
5848;DHT22;8756;49.29324300;8.70599800;2022-11-30T16:18:19;7.60;99.90
5848;DHT22;8756;49.29324300;8.70599800;2022-11-30T16:20:58;7.60;99.90
5848;DHT22;8756;49.29324300;8.70599800;2022-11-30T16:23:25;7.60;99.90
5848;DHT22;8756;49.29324300;8.70599800;2022-11-30T16:25:51;7.50;99.90
5848;DHT22;8756;49.29324300;8.70599800;2022-11-30T16:28:18;7.50;99.90
5848;DHT22;8756;49.29324300;8.70599800;2022-11-30T16:30:46;7.50;99.90
5848;DHT22;8756;49.29324300;8.70599800;2022-11-30T16:33:13;7.50;99.90
5848;DHT22;8756;49.29324300;8.70599800;2022-11-30T16:35:45;7.50;99.90